sensor_id;sensor_type;location;lat;lon;timestamp;pressure;altitude;pressure_sealevel;temperature;humidity
64402;BME280;50724;42.376;23.768;2023-05-23T00:01:23;93018.66;;;8.82;100.00
64402;BME280;50724;42.376;23.768;2023-05-23T00:04:24;93026.78;;;8.71;100.00
64402;BME280;50724;42.376;23.768;2023-05-23T00:07:26;93018.44;;;8.68;100.00
64402;BME280;50724;42.376;23.768;2023-05-23T00:10:26;93010.78;;;8.66;100.00
64402;BME280;50724;42.376;23.768;2023-05-23T00:13:27;93016.34;;;8.79;100.00
64402;BME280;50724;42.376;23.768;2023-05-23T00:16:27;93013.09;;;8.77;100.00
64402;BME280;50724;42.376;23.768;2023-05-23T00:19:28;93012.88;;;8.63;100.00
64402;BME280;50724;42.376;23.768;2023-05-23T00:22:28;93013.66;;;8.97;100.00
64402;BME280;50724;42.376;23.768;2023-05-23T00:25:28;93007.34;;;8.66;100.00
64402;BME280;50724;42.376;23.768;2023-05-23T00:28:33;93011.34;;;8.86;100.00
64402;BME280;50724;42.376;23.768;2023-05-23T00:31:33;93009.97;;;8.66;100.00
64402;BME280;50724;42.376;23.768;2023-05-23T00:34:33;93015.81;;;8.60;100.00
64402;BME280;50724;42.376;23.768;2023-05-23T00:37:35;93020.06;;;8.69;100.00
64402;BME280;50724;42.376;23.768;2023-05-23T00:40:36;93018.78;;;8.65;100.00
64402;BME280;50724;42.376;23.768;2023-05-23T00:43:36;93008.81;;;8.68;100.00
64402;BME280;50724;42.376;23.768;2023-05-23T00:46:36;93008.22;;;8.74;100.00
64402;BME280;50724;42.376;23.768;2023-05-23T00:49:37;92998.91;;;8.72;100.00
64402;BME280;50724;42.376;23.768;2023-05-23T00:52:38;93002.72;;;8.85;100.00
64402;BME280;50724;42.376;23.768;2023-05-23T00:55:38;93014.69;;;8.70;100.00
64402;BME280;50724;42.376;23.768;2023-05-23T00:58:39;93012.59;;;8.74;100.00
64402;BME280;50724;42.376;23.768;2023-05-23T01:01:40;93007.75;;;8.79;100.00
64402;BME280;50724;42.376;23.768;2023-05-23T01:04:40;93008.75;;;8.86;100.00
64402;BME280;50724;42.376;23.768;2023-05-23T01:07:41;93013.97;;;8.94;100.00
64402;BME280;50724;42.376;23.768;2023-05-23T01:10:41;93003.06;;;8.90;100.00
64402;BME280;50724;42.376;23.768;2023-05-23T01:13:52;93003.88;;;8.99;100.00
64402;BME280;50724;42.376;23.768;2023-05-23T01:17:02;92994.22;;;8.91;100.00
64402;BME280;50724;42.376;23.768;2023-05-23T01:20:11;92990.00;;;8.90;100.00
64402;BME280;50724;42.376;23.768;2023-05-23T01:23:28;93003.66;;;8.76;100.00
64402;BME280;50724;42.376;23.768;2023-05-23T01:29:55;93002.22;;;8.90;100.00
64402;BME280;50724;42.376;23.768;2023-05-23T01:32:57;93001.41;;;8.89;100.00
64402;BME280;50724;42.376;23.768;2023-05-23T01:36:00;93003.59;;;8.60;100.00
64402;BME280;50724;42.376;23.768;2023-05-23T01:39:02;92997.50;;;8.52;100.00
64402;BME280;50724;42.376;23.768;2023-05-23T01:42:03;92990.00;;;8.49;100.00
64402;BME280;50724;42.376;23.768;2023-05-23T01:45:04;92988.97;;;8.67;100.00
64402;BME280;50724;42.376;23.768;2023-05-23T01:48:05;92993.81;;;8.62;100.00
64402;BME280;50724;42.376;23.768;2023-05-23T01:51:07;92991.06;;;8.64;100.00
64402;BME280;50724;42.376;23.768;2023-05-23T01:54:08;92997.50;;;8.52;100.00
64402;BME280;50724;42.376;23.768;2023-05-23T01:57:09;92988.19;;;8.41;100.00
64402;BME280;50724;42.376;23.768;2023-05-23T02:00:10;92979.13;;;8.53;100.00
64402;BME280;50724;42.376;23.768;2023-05-23T02:03:11;92979.84;;;8.29;100.00
64402;BME280;50724;42.376;23.768;2023-05-23T02:06:11;92981.53;;;8.47;100.00
64402;BME280;50724;42.376;23.768;2023-05-23T02:09:12;92979.50;;;8.32;100.00
64402;BME280;50724;42.376;23.768;2023-05-23T02:12:12;92986.09;;;8.19;100.00
64402;BME280;50724;42.376;23.768;2023-05-23T02:15:13;92986.09;;;8.19;100.00
64402;BME280;50724;42.376;23.768;2023-05-23T02:18:13;92980.56;;;8.22;100.00
64402;BME280;50724;42.376;23.768;2023-05-23T02:21:14;92984.06;;;8.30;100.00
64402;BME280;50724;42.376;23.768;2023-05-23T02:24:14;92987.88;;;8.18;100.00
64402;BME280;50724;42.376;23.768;2023-05-23T02:27:15;92988.31;;;8.06;100.00
64402;BME280;50724;42.376;23.768;2023-05-23T02:30:15;92988.50;;;8.12;100.00
64402;BME280;50724;42.376;23.768;2023-05-23T02:33:15;92985.22;;;8.10;100.00
64402;BME280;50724;42.376;23.768;2023-05-23T02:36:16;92988.44;;;8.04;100.00
64402;BME280;50724;42.376;23.768;2023-05-23T02:39:17;92985.63;;;7.98;100.00
64402;BME280;50724;42.376;23.768;2023-05-23T02:42:17;92987.47;;;8.05;100.00
64402;BME280;50724;42.376;23.768;2023-05-23T02:45:18;92982.28;;;8.05;100.00
64402;BME280;50724;42.376;23.768;2023-05-23T02:48:19;92972.13;;;7.94;100.00
64402;BME280;50724;42.376;23.768;2023-05-23T02:51:19;92971.31;;;7.94;100.00
64402;BME280;50724;42.376;23.768;2023-05-23T02:54:20;92976.25;;;8.05;100.00
64402;BME280;50724;42.376;23.768;2023-05-23T02:57:20;92978.03;;;8.04;100.00
64402;BME280;50724;42.376;23.768;2023-05-23T03:00:21;92975.97;;;8.16;100.00
64402;BME280;50724;42.376;23.768;2023-05-23T03:03:21;92984.78;;;8.15;100.00
64402;BME280;50724;42.376;23.768;2023-05-23T03:06:22;92981.97;;;8.08;100.00
64402;BME280;50724;42.376;23.768;2023-05-23T03:09:22;92980.50;;;8.14;100.00
64402;BME280;50724;42.376;23.768;2023-05-23T03:12:22;92981.31;;;8.32;100.00
64402;BME280;50724;42.376;23.768;2023-05-23T03:15:23;92986.75;;;8.47;100.00
64402;BME280;50724;42.376;23.768;2023-05-23T03:18:23;92983.81;;;8.50;100.00
64402;BME280;50724;42.376;23.768;2023-05-23T03:21:24;92985.53;;;8.75;100.00
64402;BME280;50724;42.376;23.768;2023-05-23T03:24:24;92983.66;;;8.51;100.00
64402;BME280;50724;42.376;23.768;2023-05-23T03:27:25;92983.69;;;8.59;100.00
64402;BME280;50724;42.376;23.768;2023-05-23T03:30:25;92981.91;;;8.60;100.00
64402;BME280;50724;42.376;23.768;2023-05-23T03:33:26;92988.00;;;8.76;100.00
64402;BME280;50724;42.376;23.768;2023-05-23T03:36:26;92996.00;;;8.83;100.00
64402;BME280;50724;42.376;23.768;2023-05-23T03:39:27;92982.00;;;8.92;100.00
64402;BME280;50724;42.376;23.768;2023-05-23T03:42:28;92986.53;;;8.74;100.00
64402;BME280;50724;42.376;23.768;2023-05-23T03:45:30;92979.06;;;8.87;100.00
64402;BME280;50724;42.376;23.768;2023-05-23T03:48:31;92980.78;;;9.36;100.00
64402;BME280;50724;42.376;23.768;2023-05-23T03:51:31;92978.19;;;9.77;100.00
64402;BME280;50724;42.376;23.768;2023-05-23T03:54:31;92979.31;;;9.98;100.00
64402;BME280;50724;42.376;23.768;2023-05-23T03:57:32;92982.09;;;10.05;100.00
64402;BME280;50724;42.376;23.768;2023-05-23T04:00:32;92980.59;;;10.26;100.00
64402;BME280;50724;42.376;23.768;2023-05-23T04:03:33;92981.06;;;10.30;100.00
64402;BME280;50724;42.376;23.768;2023-05-23T04:06:33;92982.03;;;10.37;100.00
64402;BME280;50724;42.376;23.768;2023-05-23T04:09:34;92984.38;;;10.71;100.00
64402;BME280;50724;42.376;23.768;2023-05-23T04:12:35;92991.03;;;11.43;100.00
64402;BME280;50724;42.376;23.768;2023-05-23T04:15:36;92990.72;;;13.94;94.38
64402;BME280;50724;42.376;23.768;2023-05-23T04:18:36;93003.22;;;16.70;76.99
64402;BME280;50724;42.376;23.768;2023-05-23T04:21:38;92995.00;;;18.68;65.97
64402;BME280;50724;42.376;23.768;2023-05-23T04:24:38;93005.31;;;20.74;55.48
64402;BME280;50724;42.376;23.768;2023-05-23T04:27:39;93001.63;;;22.08;51.40
64402;BME280;50724;42.376;23.768;2023-05-23T04:30:40;92997.38;;;22.68;49.52
64402;BME280;50724;42.376;23.768;2023-05-23T04:33:41;93000.59;;;21.34;53.47
64402;BME280;50724;42.376;23.768;2023-05-23T04:36:42;92997.84;;;21.92;51.26
64402;BME280;50724;42.376;23.768;2023-05-23T04:39:43;92998.44;;;21.82;49.64
64402;BME280;50724;42.376;23.768;2023-05-23T04:42:44;92993.81;;;21.89;49.61
64402;BME280;50724;42.376;23.768;2023-05-23T04:45:46;93004.41;;;21.38;51.87
64402;BME280;50724;42.376;23.768;2023-05-23T04:48:51;93005.94;;;21.34;52.64
64402;BME280;50724;42.376;23.768;2023-05-23T04:51:52;93012.56;;;22.68;48.34
64402;BME280;50724;42.376;23.768;2023-05-23T04:54:52;93004.22;;;24.07;45.21
64402;BME280;50724;42.376;23.768;2023-05-23T04:57:53;93012.88;;;26.20;39.89
64402;BME280;50724;42.376;23.768;2023-05-23T05:00:53;93009.53;;;26.85;41.72
64402;BME280;50724;42.376;23.768;2023-05-23T05:04:11;93010.72;;;26.12;41.64
64402;BME280;50724;42.376;23.768;2023-05-23T05:07:11;93011.44;;;26.07;42.13
64402;BME280;50724;42.376;23.768;2023-05-23T05:10:13;93013.13;;;25.66;43.13
64402;BME280;50724;42.376;23.768;2023-05-23T05:13:15;93021.13;;;25.61;43.03
64402;BME280;50724;42.376;23.768;2023-05-23T05:16:16;93020.13;;;24.72;46.70
64402;BME280;50724;42.376;23.768;2023-05-23T05:19:16;93008.72;;;23.63;49.27
64402;BME280;50724;42.376;23.768;2023-05-23T05:22:17;93010.72;;;22.40;51.92
64402;BME280;50724;42.376;23.768;2023-05-23T05:25:17;93014.31;;;20.62;59.99
64402;BME280;50724;42.376;23.768;2023-05-23T05:28:18;93011.38;;;19.80;63.34
64402;BME280;50724;42.376;23.768;2023-05-23T05:31:18;93006.25;;;19.79;64.37
64402;BME280;50724;42.376;23.768;2023-05-23T05:34:18;93016.94;;;19.18;69.74
64402;BME280;50724;42.376;23.768;2023-05-23T05:37:20;93015.19;;;18.38;69.02
64402;BME280;50724;42.376;23.768;2023-05-23T05:40:20;93007.47;;;17.67;68.81
64402;BME280;50724;42.376;23.768;2023-05-23T05:43:21;93021.44;;;17.17;71.98
64402;BME280;50724;42.376;23.768;2023-05-23T05:46:21;93028.34;;;17.25;68.68
64402;BME280;50724;42.376;23.768;2023-05-23T05:49:22;93022.09;;;17.06;71.21
64402;BME280;50724;42.376;23.768;2023-05-23T05:52:23;93020.69;;;16.97;71.56
64402;BME280;50724;42.376;23.768;2023-05-23T05:55:23;93020.25;;;17.00;69.72
64402;BME280;50724;42.376;23.768;2023-05-23T05:58:24;93026.16;;;17.02;68.89
64402;BME280;50724;42.376;23.768;2023-05-23T06:01:24;93021.22;;;17.25;73.34
64402;BME280;50724;42.376;23.768;2023-05-23T06:04:26;93017.94;;;17.36;68.77
64402;BME280;50724;42.376;23.768;2023-05-23T06:07:26;93023.88;;;17.12;68.08
64402;BME280;50724;42.376;23.768;2023-05-23T06:10:26;93023.16;;;17.49;65.48
64402;BME280;50724;42.376;23.768;2023-05-23T06:13:27;93020.94;;;17.97;68.53
64402;BME280;50724;42.376;23.768;2023-05-23T06:16:28;93020.56;;;18.25;62.16
64402;BME280;50724;42.376;23.768;2023-05-23T06:19:28;93027.28;;;18.27;66.98
64402;BME280;50724;42.376;23.768;2023-05-23T06:22:29;93025.22;;;18.61;63.41
64402;BME280;50724;42.376;23.768;2023-05-23T06:25:30;93023.03;;;18.76;60.35
64402;BME280;50724;42.376;23.768;2023-05-23T06:28:30;93023.22;;;18.56;57.67
64402;BME280;50724;42.376;23.768;2023-05-23T06:31:31;93020.44;;;18.13;62.22
64402;BME280;50724;42.376;23.768;2023-05-23T06:34:31;93028.59;;;17.74;64.23
64402;BME280;50724;42.376;23.768;2023-05-23T06:37:31;93022.19;;;17.44;64.57
64402;BME280;50724;42.376;23.768;2023-05-23T06:40:32;93022.28;;;16.98;65.16
64402;BME280;50724;42.376;23.768;2023-05-23T06:43:32;93024.16;;;16.78;68.05
64402;BME280;50724;42.376;23.768;2023-05-23T06:46:33;93029.81;;;17.01;61.15
64402;BME280;50724;42.376;23.768;2023-05-23T06:49:33;93028.78;;;17.15;61.54
64402;BME280;50724;42.376;23.768;2023-05-23T06:52:34;93029.19;;;17.76;62.39
64402;BME280;50724;42.376;23.768;2023-05-23T06:55:34;93022.00;;;17.90;58.58
64402;BME280;50724;42.376;23.768;2023-05-23T06:58:35;93014.31;;;17.81;57.07
64402;BME280;50724;42.376;23.768;2023-05-23T07:01:35;93015.59;;;17.66;58.47
64402;BME280;50724;42.376;23.768;2023-05-23T07:04:35;93012.28;;;17.83;58.89
64402;BME280;50724;42.376;23.768;2023-05-23T07:07:36;93011.91;;;18.36;55.31
64402;BME280;50724;42.376;23.768;2023-05-23T07:10:39;93010.41;;;18.53;56.48
64402;BME280;50724;42.376;23.768;2023-05-23T07:13:43;93008.53;;;17.98;56.91
64402;BME280;50724;42.376;23.768;2023-05-23T07:16:43;93010.31;;;18.35;57.57
64402;BME280;50724;42.376;23.768;2023-05-23T07:19:44;93005.97;;;18.40;57.49
64402;BME280;50724;42.376;23.768;2023-05-23T07:22:45;93005.28;;;18.27;58.62
64402;BME280;50724;42.376;23.768;2023-05-23T07:25:46;93014.91;;;18.21;58.06
64402;BME280;50724;42.376;23.768;2023-05-23T07:28:46;93014.16;;;18.70;53.52
64402;BME280;50724;42.376;23.768;2023-05-23T07:31:47;93019.22;;;18.47;54.74
64402;BME280;50724;42.376;23.768;2023-05-23T07:34:47;93010.91;;;18.68;53.03
64402;BME280;50724;42.376;23.768;2023-05-23T07:37:48;93011.00;;;18.80;54.57
64402;BME280;50724;42.376;23.768;2023-05-23T07:40:48;93009.06;;;19.30;54.73
64402;BME280;50724;42.376;23.768;2023-05-23T07:43:49;92996.44;;;19.50;52.22
64402;BME280;50724;42.376;23.768;2023-05-23T07:46:49;92992.88;;;19.74;54.66
64402;BME280;50724;42.376;23.768;2023-05-23T07:49:50;92992.31;;;20.02;52.35
64402;BME280;50724;42.376;23.768;2023-05-23T07:52:51;92993.38;;;19.82;51.12
64402;BME280;50724;42.376;23.768;2023-05-23T07:55:51;92990.72;;;19.82;50.13
64402;BME280;50724;42.376;23.768;2023-05-23T07:58:52;92990.22;;;20.33;49.79
64402;BME280;50724;42.376;23.768;2023-05-23T08:01:53;92994.31;;;20.71;47.52
64402;BME280;50724;42.376;23.768;2023-05-23T08:04:53;92983.34;;;19.30;49.63
64402;BME280;50724;42.376;23.768;2023-05-23T08:07:53;92992.94;;;19.67;52.05
64402;BME280;50724;42.376;23.768;2023-05-23T08:10:54;92992.25;;;19.90;50.44
64402;BME280;50724;42.376;23.768;2023-05-23T08:13:55;92993.25;;;20.37;48.32
64402;BME280;50724;42.376;23.768;2023-05-23T08:16:55;92988.63;;;20.14;47.12
64402;BME280;50724;42.376;23.768;2023-05-23T08:19:56;92986.25;;;19.47;52.95
64402;BME280;50724;42.376;23.768;2023-05-23T08:23:02;92995.44;;;20.10;51.71
64402;BME280;50724;42.376;23.768;2023-05-23T08:26:03;92980.28;;;19.99;51.05
64402;BME280;50724;42.376;23.768;2023-05-23T08:29:04;92978.38;;;20.71;50.79
64402;BME280;50724;42.376;23.768;2023-05-23T08:32:05;92980.00;;;20.83;50.74
64402;BME280;50724;42.376;23.768;2023-05-23T08:35:05;92987.59;;;20.45;48.74
64402;BME280;50724;42.376;23.768;2023-05-23T08:38:06;92981.59;;;20.61;48.82
64402;BME280;50724;42.376;23.768;2023-05-23T08:41:15;92972.41;;;20.22;48.41
64402;BME280;50724;42.376;23.768;2023-05-23T08:44:17;92982.97;;;20.52;50.23
64402;BME280;50724;42.376;23.768;2023-05-23T08:47:18;92965.91;;;19.88;50.05
64402;BME280;50724;42.376;23.768;2023-05-23T08:50:19;92976.84;;;20.40;50.58
64402;BME280;50724;42.376;23.768;2023-05-23T08:53:22;92978.47;;;18.91;53.41
64402;BME280;50724;42.376;23.768;2023-05-23T08:56:24;92978.19;;;19.35;51.58
64402;BME280;50724;42.376;23.768;2023-05-23T08:59:25;92958.13;;;20.35;52.26
64402;BME280;50724;42.376;23.768;2023-05-23T09:02:26;92974.13;;;20.70;50.41
64402;BME280;50724;42.376;23.768;2023-05-23T09:05:27;92979.44;;;20.81;51.03
64402;BME280;50724;42.376;23.768;2023-05-23T09:08:27;92966.13;;;20.58;50.78
64402;BME280;50724;42.376;23.768;2023-05-23T09:11:28;92973.63;;;20.49;49.49
64402;BME280;50724;42.376;23.768;2023-05-23T09:14:28;92983.94;;;20.69;48.21
64402;BME280;50724;42.376;23.768;2023-05-23T09:17:31;92971.06;;;20.43;46.55
64402;BME280;50724;42.376;23.768;2023-05-23T09:20:32;92962.72;;;19.98;47.19
64402;BME280;50724;42.376;23.768;2023-05-23T09:23:37;92959.47;;;20.26;47.39
64402;BME280;50724;42.376;23.768;2023-05-23T09:26:41;92951.09;;;20.52;47.23
64402;BME280;50724;42.376;23.768;2023-05-23T09:29:48;92961.03;;;20.15;50.27
64402;BME280;50724;42.376;23.768;2023-05-23T09:32:57;92962.13;;;19.96;49.42
64402;BME280;50724;42.376;23.768;2023-05-23T09:35:59;92957.22;;;20.52;48.29
64402;BME280;50724;42.376;23.768;2023-05-23T09:39:03;92971.50;;;20.28;46.57
64402;BME280;50724;42.376;23.768;2023-05-23T09:42:07;92960.41;;;21.07;48.29
64402;BME280;50724;42.376;23.768;2023-05-23T09:45:07;92960.97;;;21.21;44.73
64402;BME280;50724;42.376;23.768;2023-05-23T09:48:11;92966.16;;;21.16;44.13
64402;BME280;50724;42.376;23.768;2023-05-23T09:51:13;92949.25;;;20.99;45.93
64402;BME280;50724;42.376;23.768;2023-05-23T09:54:13;92958.16;;;20.81;48.03
64402;BME280;50724;42.376;23.768;2023-05-23T09:57:15;92955.97;;;20.55;45.68
64402;BME280;50724;42.376;23.768;2023-05-23T10:00:18;92937.94;;;20.80;48.13
64402;BME280;50724;42.376;23.768;2023-05-23T10:03:25;92946.13;;;20.55;44.98
64402;BME280;50724;42.376;23.768;2023-05-23T10:06:49;92939.91;;;21.08;43.23
64402;BME280;50724;42.376;23.768;2023-05-23T10:10:02;92939.88;;;21.19;43.37
64402;BME280;50724;42.376;23.768;2023-05-23T10:13:04;92936.84;;;21.79;44.76
64402;BME280;50724;42.376;23.768;2023-05-23T10:19:43;92948.34;;;22.08;43.10
64402;BME280;50724;42.376;23.768;2023-05-23T10:22:45;92934.19;;;22.85;40.58
64402;BME280;50724;42.376;23.768;2023-05-23T10:25:47;92948.81;;;22.99;41.52
64402;BME280;50724;42.376;23.768;2023-05-23T10:28:48;92928.78;;;22.02;41.76
64402;BME280;50724;42.376;23.768;2023-05-23T10:31:51;92933.41;;;20.46;43.93
64402;BME280;50724;42.376;23.768;2023-05-23T10:34:56;92930.06;;;20.50;44.36
64402;BME280;50724;42.376;23.768;2023-05-23T10:38:06;92933.19;;;20.47;43.99
64402;BME280;50724;42.376;23.768;2023-05-23T10:44:30;92921.78;;;20.17;46.42
64402;BME280;50724;42.376;23.768;2023-05-23T10:47:30;92919.19;;;20.29;44.99
64402;BME280;50724;42.376;23.768;2023-05-23T10:53:44;92920.84;;;20.65;44.18
64402;BME280;50724;42.376;23.768;2023-05-23T10:56:44;92918.84;;;20.95;43.12
64402;BME280;50724;42.376;23.768;2023-05-23T10:59:45;92910.53;;;21.14;44.58
64402;BME280;50724;42.376;23.768;2023-05-23T11:02:53;92911.34;;;21.83;41.50
64402;BME280;50724;42.376;23.768;2023-05-23T11:05:54;92910.97;;;22.19;41.37
64402;BME280;50724;42.376;23.768;2023-05-23T11:09:24;92913.78;;;21.56;42.19
64402;BME280;50724;42.376;23.768;2023-05-23T11:12:41;92919.56;;;20.90;42.75
64402;BME280;50724;42.376;23.768;2023-05-23T11:15:42;92916.91;;;21.13;44.67
64402;BME280;50724;42.376;23.768;2023-05-23T11:18:44;92924.44;;;20.82;44.43
64402;BME280;50724;42.376;23.768;2023-05-23T11:21:48;92926.41;;;20.75;44.44
64402;BME280;50724;42.376;23.768;2023-05-23T11:24:55;92924.53;;;20.64;45.16
64402;BME280;50724;42.376;23.768;2023-05-23T11:27:56;92928.09;;;20.46;45.48
64402;BME280;50724;42.376;23.768;2023-05-23T11:30:57;92921.03;;;20.28;46.08
64402;BME280;50724;42.376;23.768;2023-05-23T11:33:57;92936.47;;;20.20;49.92
64402;BME280;50724;42.376;23.768;2023-05-23T11:36:57;92932.06;;;20.14;46.09
64402;BME280;50724;42.376;23.768;2023-05-23T11:39:59;92929.41;;;20.14;50.03
64402;BME280;50724;42.376;23.768;2023-05-23T11:43:06;92932.13;;;20.37;49.72
64402;BME280;50724;42.376;23.768;2023-05-23T11:46:07;92923.31;;;19.83;50.44
64402;BME280;50724;42.376;23.768;2023-05-23T11:49:11;92929.88;;;20.11;51.01
64402;BME280;50724;42.376;23.768;2023-05-23T11:52:12;92923.72;;;19.69;55.79
64402;BME280;50724;42.376;23.768;2023-05-23T11:55:12;92922.59;;;19.47;57.02
64402;BME280;50724;42.376;23.768;2023-05-23T11:58:13;92920.91;;;19.52;56.87
64402;BME280;50724;42.376;23.768;2023-05-23T12:01:13;92916.34;;;19.71;53.64
64402;BME280;50724;42.376;23.768;2023-05-23T12:04:14;92916.34;;;20.12;50.35
64402;BME280;50724;42.376;23.768;2023-05-23T12:07:18;92920.25;;;20.39;49.35
64402;BME280;50724;42.376;23.768;2023-05-23T12:10:18;92919.78;;;21.00;47.07
64402;BME280;50724;42.376;23.768;2023-05-23T12:13:25;92909.31;;;21.34;49.33
64402;BME280;50724;42.376;23.768;2023-05-23T12:16:27;92898.03;;;21.55;50.42
64402;BME280;50724;42.376;23.768;2023-05-23T12:19:28;92906.31;;;21.70;49.73
64402;BME280;50724;42.376;23.768;2023-05-23T12:22:28;92900.63;;;22.23;49.13
64402;BME280;50724;42.376;23.768;2023-05-23T12:25:29;92895.03;;;22.69;47.08
64402;BME280;50724;42.376;23.768;2023-05-23T12:28:40;92892.88;;;22.88;47.42
64402;BME280;50724;42.376;23.768;2023-05-23T12:31:42;92882.13;;;23.64;46.83
64402;BME280;50724;42.376;23.768;2023-05-23T12:34:42;92889.03;;;24.35;44.53
64402;BME280;50724;42.376;23.768;2023-05-23T12:37:44;92885.97;;;24.90;41.00
64402;BME280;50724;42.376;23.768;2023-05-23T12:40:44;92883.44;;;24.10;43.83
64402;BME280;50724;42.376;23.768;2023-05-23T12:43:49;92883.31;;;24.58;43.30
64402;BME280;50724;42.376;23.768;2023-05-23T12:46:51;92883.38;;;24.64;41.85
64402;BME280;50724;42.376;23.768;2023-05-23T12:49:51;92879.66;;;24.33;41.94
64402;BME280;50724;42.376;23.768;2023-05-23T12:52:52;92870.50;;;23.75;42.76
64402;BME280;50724;42.376;23.768;2023-05-23T12:55:52;92874.84;;;23.16;43.93
64402;BME280;50724;42.376;23.768;2023-05-23T12:58:52;92875.22;;;23.03;48.19
64402;BME280;50724;42.376;23.768;2023-05-23T13:01:53;92875.78;;;23.05;52.53
64402;BME280;50724;42.376;23.768;2023-05-23T13:04:54;92878.91;;;22.31;57.22
64402;BME280;50724;42.376;23.768;2023-05-23T13:07:54;92878.31;;;21.96;57.69
64402;BME280;50724;42.376;23.768;2023-05-23T13:10:55;92873.03;;;21.56;56.42
64402;BME280;50724;42.376;23.768;2023-05-23T13:13:56;92870.53;;;20.98;59.62
64402;BME280;50724;42.376;23.768;2023-05-23T13:16:57;92876.78;;;20.80;60.00
64402;BME280;50724;42.376;23.768;2023-05-23T13:19:57;92870.31;;;20.76;59.82
64402;BME280;50724;42.376;23.768;2023-05-23T13:22:58;92865.94;;;20.82;60.24
64402;BME280;50724;42.376;23.768;2023-05-23T13:25:58;92860.13;;;21.08;62.43
64402;BME280;50724;42.376;23.768;2023-05-23T13:28:59;92856.88;;;21.74;53.61
64402;BME280;50724;42.376;23.768;2023-05-23T13:32:00;92866.16;;;22.33;50.84
64402;BME280;50724;42.376;23.768;2023-05-23T13:35:00;92862.66;;;22.49;50.26
64402;BME280;50724;42.376;23.768;2023-05-23T13:38:01;92859.25;;;22.87;51.77
64402;BME280;50724;42.376;23.768;2023-05-23T13:41:01;92858.41;;;23.24;48.51
64402;BME280;50724;42.376;23.768;2023-05-23T13:44:01;92851.34;;;23.13;45.66
64402;BME280;50724;42.376;23.768;2023-05-23T13:47:13;92861.63;;;23.26;45.95
64402;BME280;50724;42.376;23.768;2023-05-23T13:50:13;92853.41;;;23.50;45.64
64402;BME280;50724;42.376;23.768;2023-05-23T13:53:14;92852.84;;;23.48;44.24
64402;BME280;50724;42.376;23.768;2023-05-23T13:56:15;92851.81;;;23.49;43.22
64402;BME280;50724;42.376;23.768;2023-05-23T13:59:16;92851.06;;;23.53;44.75
64402;BME280;50724;42.376;23.768;2023-05-23T14:02:20;92851.47;;;23.93;40.91
64402;BME280;50724;42.376;23.768;2023-05-23T14:05:21;92843.66;;;23.60;40.95
64402;BME280;50724;42.376;23.768;2023-05-23T14:08:22;92849.34;;;23.69;41.22
64402;BME280;50724;42.376;23.768;2023-05-23T14:11:23;92845.84;;;23.68;40.73
64402;BME280;50724;42.376;23.768;2023-05-23T14:14:23;92846.97;;;23.99;38.46
64402;BME280;50724;42.376;23.768;2023-05-23T14:17:24;92841.22;;;23.85;40.53
64402;BME280;50724;42.376;23.768;2023-05-23T14:20:24;92844.91;;;24.06;38.62
64402;BME280;50724;42.376;23.768;2023-05-23T14:23:24;92848.28;;;24.23;37.24
64402;BME280;50724;42.376;23.768;2023-05-23T14:26:25;92851.84;;;24.34;38.62
64402;BME280;50724;42.376;23.768;2023-05-23T14:29:25;92851.69;;;24.14;39.06
64402;BME280;50724;42.376;23.768;2023-05-23T14:32:26;92848.47;;;23.90;37.18
64402;BME280;50724;42.376;23.768;2023-05-23T14:35:26;92848.81;;;23.93;37.14
64402;BME280;50724;42.376;23.768;2023-05-23T14:38:28;92847.75;;;24.21;36.21
64402;BME280;50724;42.376;23.768;2023-05-23T14:41:29;92839.84;;;25.15;36.46
64402;BME280;50724;42.376;23.768;2023-05-23T14:44:30;92841.19;;;26.10;33.84
64402;BME280;50724;42.376;23.768;2023-05-23T14:47:31;92844.44;;;27.76;32.24
64402;BME280;50724;42.376;23.768;2023-05-23T14:50:32;92853.91;;;28.62;28.61
64402;BME280;50724;42.376;23.768;2023-05-23T14:53:32;92847.41;;;29.49;26.83
64402;BME280;50724;42.376;23.768;2023-05-23T14:56:33;92848.03;;;29.88;26.21
64402;BME280;50724;42.376;23.768;2023-05-23T14:59:33;92844.41;;;30.35;25.55
64402;BME280;50724;42.376;23.768;2023-05-23T15:02:34;92849.94;;;31.26;24.70
64402;BME280;50724;42.376;23.768;2023-05-23T15:05:34;92858.41;;;32.07;22.71
64402;BME280;50724;42.376;23.768;2023-05-23T15:08:35;92852.13;;;33.44;22.22
64402;BME280;50724;42.376;23.768;2023-05-23T15:11:36;92853.09;;;33.48;22.95
64402;BME280;50724;42.376;23.768;2023-05-23T15:14:37;92850.09;;;33.19;22.94
64402;BME280;50724;42.376;23.768;2023-05-23T15:17:38;92847.47;;;31.71;24.06
64402;BME280;50724;42.376;23.768;2023-05-23T15:20:38;92840.47;;;32.69;23.11
64402;BME280;50724;42.376;23.768;2023-05-23T15:23:39;92844.25;;;32.45;22.95
64402;BME280;50724;42.376;23.768;2023-05-23T15:26:39;92842.53;;;33.38;22.29
64402;BME280;50724;42.376;23.768;2023-05-23T15:29:40;92850.53;;;33.43;21.45
64402;BME280;50724;42.376;23.768;2023-05-23T15:32:41;92834.81;;;33.54;22.25
64402;BME280;50724;42.376;23.768;2023-05-23T15:35:41;92834.91;;;33.18;22.14
64402;BME280;50724;42.376;23.768;2023-05-23T15:38:42;92828.09;;;32.98;22.16
64402;BME280;50724;42.376;23.768;2023-05-23T15:41:43;92831.44;;;33.17;22.65
64402;BME280;50724;42.376;23.768;2023-05-23T15:44:43;92828.41;;;32.03;23.44
64402;BME280;50724;42.376;23.768;2023-05-23T15:47:44;92828.28;;;32.80;23.58
64402;BME280;50724;42.376;23.768;2023-05-23T15:50:53;92833.69;;;33.55;21.96
64402;BME280;50724;42.376;23.768;2023-05-23T15:53:54;92820.38;;;33.84;21.82
64402;BME280;50724;42.376;23.768;2023-05-23T15:56:54;92822.47;;;33.87;21.43
64402;BME280;50724;42.376;23.768;2023-05-23T15:59:55;92830.28;;;33.80;21.85
64402;BME280;50724;42.376;23.768;2023-05-23T16:02:55;92829.19;;;33.19;22.05